• Join FlightAware (Why Join?)
  • Login
  • US Flag 
06:00PM EDT


 

Airport Tracker/Info


-or-


 

Live Flight TrackerFlight Track Log ✈ DAL1355 ✈ 05-May-2013 ✈ KRNO - KSLC

Flight Track Log - Related Links

Times and Time Zones

All times are in EDT time to prevent confusion due to time zone crossing. See the DAL1355 flight status page for this flight to view local times or setup timezone preferences in your user account.

Time Position Orientation Groundspeed Altitude Reporting Facility
EDT Latitude Longitude Course Direction KTS MPH feet Rate Location/Type
03:12PM 39.4647 -119.7681 57° Northeast 167 192 35,000  Level Oakland Center
03:13PM 39.4333 -119.7667 178° South 172 198 7,500 -16,080 Descending Northern Cal TRACON
03:14PM 39.3833 -119.7667 180° South 186 214 9,300 1,260 Climbing Northern Cal TRACON
03:15PM 39.7052 -119.3490 55° Northeast  Level FlightAware Approximate
03:16PM 39.7848 -119.2137 57° Northeast  Level FlightAware Approximate
03:16PM 39.4244 -119.6506 65° Northeast 227 261 11,200  Level Salt Lake Center
03:17PM 39.8564 -119.0705 57° Northeast  Level FlightAware Approximate
03:17PM 39.4589 -119.5986 49° Northeast 268 308 12,000  Level Oakland Center
03:18PM 39.9281 -118.9273 57° Northeast  Level FlightAware Approximate
03:18PM 39.5264 -119.4972 49° Northeast 351 404 13,700  Level Oakland Center
03:19PM 39.5967 -119.3922 49° Northeast 379 436 16,100 2,340 Climbing Oakland Center
03:20PM 39.6844 -119.2564 50° Northeast 404 465 18,500 2,640 Climbing Oakland Center
03:21PM 39.7592 -119.1431 49° Northeast 409 471 21,600 2,340 Climbing Oakland Center
03:22PM 39.8317 -119.0311 50° Northeast 403 464 23,300 1,560 Climbing Oakland Center
03:23PM 39.8672 -118.8900 72° East 408 470 24,900 1,020 Climbing Oakland Center
03:24PM 39.8958 -118.7381 76° East 423 487 25,500 720 Climbing Oakland Center
03:25PM 39.9269 -118.5750 76° East 454 522 26,400 960 Climbing Oakland Center
03:26PM 39.9578 -118.4069 76° East 469 540 27,500 1,080 Climbing Oakland Center
03:27PM 39.9889 -118.2383 76° East 474 545 28,700 1,260 Climbing Oakland Center
03:28PM 40.0156 -118.0675 78° East 478 550 30,100 1,380 Climbing Oakland Center
03:29PM 40.0411 -117.8992 79° East 474 545 31,600 1,260 Climbing Oakland Center
03:30PM 40.0675 -117.7322 78° East 470 541 32,700 780 Climbing Oakland Center
03:31PM 40.0997 -117.5306 78° East 472 543 33,300 780 Climbing Oakland Center
03:32PM 40.1264 -117.3564 79° East 484 557 34,300 1,140 Climbing Oakland Center
03:32PM 40.1375 -117.2792 79° East 486 559 35,000 420 Climbing Salt Lake Center
03:33PM 40.1622 -117.1189 79° East 476 548 35,000  Level Salt Lake Center
03:34PM 40.1900 -116.9300 79° East 479 551 35,000  Level Salt Lake Center
03:35PM 40.2139 -116.7714 79° East 472 543 35,000  Level Salt Lake Center
03:36PM 40.2408 -116.5886 79° East 466 536 35,000  Level Salt Lake Center
03:37PM 40.2636 -116.4286 79° East 470 541 35,000  Level Salt Lake Center
03:39PM 40.2911 -116.2431 79° East 468 539 35,000  Level Salt Lake Center
03:40PM 40.3133 -116.0811 80° East 472 543 35,000  Level Salt Lake Center
03:41PM 40.3361 -115.9194 79° East 473 544 35,000  Level Salt Lake Center
03:42PM 40.3633 -115.7292 79° East 474 545 35,000  Level Salt Lake Center
03:43PM 40.3869 -115.5667 79° East 475 547 35,000  Level Salt Lake Center
03:44PM 40.4125 -115.3750 80° East 478 550 35,000  Level Salt Lake Center
03:45PM 40.4344 -115.2111 80° East 478 550 35,000  Level Salt Lake Center
03:46PM 40.4603 -115.0203 80° East 475 547 35,000 -60 Level Salt Lake Center
03:47PM 40.4814 -114.8556 80° East 478 550 34,900  Descending Salt Lake Center
03:48PM 40.5022 -114.6892 81° East 480 552 35,100 -120 Climbing Salt Lake Center
03:49PM 40.5247 -114.5175 80° East 479 551 34,700 -720 Descending Salt Lake Center
03:50PM 40.5517 -114.3100 80° East 480 552 33,600 -1,080 Descending Salt Lake Center
03:51PM 40.5719 -114.1356 81° East 483 556 32,600 -1,020 Descending Salt Lake Center
03:52PM 40.5942 -113.9592 81° East 489 563 31,600 -1,320 Descending Salt Lake Center
03:53PM 40.6164 -113.7800 81° East 497 572 30,000 -2,340 Descending Salt Lake Center
03:54PM 40.6369 -113.6000 81° East 499 574 26,900 -2,880 Descending Salt Lake Center
03:55PM 40.6581 -113.4278 81° East 482 555 24,200 -2,760 Descending Salt Lake Center
03:56PM 40.6783 -113.2631 81° East 464 534 21,300 -2,640 Descending Salt Lake Center
03:57PM 40.6956 -113.1042 82° East 440 506 18,800 -1,920 Descending Salt Lake Center
03:58PM 40.7189 -112.9558 78° East 397 457 17,600 -1,200 Descending Salt Lake Center
03:59PM 40.7256 -112.8775 84° East 364 419 17,000 -1,200 Descending Salt Lake Center
03:59PM 40.7236 -112.8089 92° East 345 397 16,300 -1,500 Descending Salt Lake Center
04:00PM 40.7264 -112.7558 86° East 332 382 15,500 -1,380 Descending Salt Lake Center
04:00PM 40.7219 -112.6903 95° East 327 376 14,900 -1,560 Descending Salt Lake Center
04:00PM 40.7247 -112.6461 85° East 324 373 14,100 -1,500 Descending Salt Lake Center
04:01PM 40.7203 -112.5758 95° East 316 364 13,400 -1,080 Descending Salt Lake Center
04:02PM 40.7242 -112.5192 85° East 301 346 12,900 -1,020 Descending Salt Lake Center
04:02PM 40.7297 -112.4711 81° East 292 336 12,400 -960 Descending Salt Lake Center
04:03PM 40.7422 -112.4114 75° East 283 326 11,900 -540 Descending Salt Lake Center
04:03PM 40.7467 -112.3706 82° East 284 327 11,900  Level Salt Lake Center
04:04PM 40.7561 -112.3164 77° East 282 325 11,900  Level Salt Lake Center
04:04PM 40.7625 -112.2736 79° East 274 315 11,900  Level Salt Lake Center
04:05PM 40.7658 -112.2225 85° East 260 299 11,900  Level Salt Lake Center
04:05PM 40.7656 -112.1625 90° East 256 295 11,900  Level Salt Lake Center
04:06PM 40.7528 -112.1336 120° Southeast 254 292 11,900 -780 Level Salt Lake Center
04:06PM 40.7239 -112.0944 134° Southeast 242 278 11,100 -1,620 Descending Salt Lake Center
04:07PM 40.6964 -112.0875 169° South 237 273 10,300 -1,200 Descending Salt Lake Center
04:07PM 40.6608 -112.0808 172° South 232 267 9,900 -360 Descending Salt Lake Center
04:08PM 40.6414 -112.0806 179° South 216 249 10,000  Climbing Salt Lake Center
04:08PM 40.6067 -112.0697 167° South 200 230 9,900 -600 Descending Salt Lake Center
04:09PM 40.5981 -112.0472 117° Southeast 199 229 9,400 -1,980 Descending Salt Lake Center
04:09PM 40.6164 -112.0064 59° Northeast 217 250 7,900 -2,100 Descending Salt Lake Center
04:10PM 40.6369 -112.0031 North 217 250 7,300 -1,800 Descending Salt Lake Center
04:10PM 40.6733 -111.9883 17° North 211 243 6,100 -1,200 Descending Salt Lake Center
04:11PM 40.7239 -111.9894 359° North 180 207 5,200 -900 Descending Salt Lake Center
04:12PM 40.7717 -111.9947 355° North 146 168 4,300 -900 Descending Salt Lake Center